createdAt,value
2023-01-28T00:01:54.130Z,98242.63
2023-01-28T00:04:20.881Z,98248.50
2023-01-28T00:06:47.636Z,98246.78
2023-01-28T00:09:14.421Z,98244.22
2023-01-28T00:11:41.198Z,98244.22
2023-01-28T00:14:08.280Z,98247.69
2023-01-28T00:16:35.103Z,98238.25
2023-01-28T00:19:01.880Z,98238.31
2023-01-28T00:21:28.664Z,98234.94
2023-01-28T00:23:56.506Z,98235.00
2023-01-28T00:26:25.187Z,98240.00
2023-01-28T00:28:51.983Z,98237.44
2023-01-28T00:31:25.081Z,98243.34
2023-01-28T00:33:52.842Z,98233.88
2023-01-28T00:36:21.819Z,98235.47
2023-01-28T00:38:54.183Z,98241.38
2023-01-28T00:41:23.971Z,98232.91
2023-01-28T00:43:52.008Z,98234.66
2023-01-28T00:46:27.242Z,98236.38
2023-01-28T00:48:54.084Z,98231.19
2023-01-28T00:51:21.712Z,98231.13
2023-01-28T00:53:48.708Z,98241.38
2023-01-28T00:56:18.247Z,98238.00
2023-01-28T00:58:45.361Z,98246.50
2023-01-28T01:01:16.549Z,98250.03
2023-01-28T01:03:44.288Z,98250.03
2023-01-28T01:06:13.141Z,98245.78
2023-01-28T01:08:43.046Z,98246.63
2023-01-28T01:11:11.781Z,98247.50
2023-01-28T01:13:39.094Z,98255.16
2023-01-28T01:16:14.308Z,98257.66
2023-01-28T01:18:42.010Z,98258.44
2023-01-28T01:21:12.362Z,98266.91
2023-01-28T01:23:39.819Z,98260.94
2023-01-28T01:26:07.454Z,98262.66
2023-01-28T01:28:34.193Z,98258.38
2023-01-28T01:31:15.160Z,98255.81
2023-01-28T01:33:43.656Z,98256.75
2023-01-28T01:36:13.138Z,98255.03
2023-01-28T01:38:40.946Z,98259.28
2023-01-28T01:41:12.642Z,98254.09
2023-01-28T01:43:56.018Z,98258.38
2023-01-28T01:46:50.724Z,98268.63
2023-01-28T01:49:22.261Z,98266.13
2023-01-28T01:52:00.504Z,98271.16
2023-01-28T01:54:31.861Z,98279.78
2023-01-28T01:57:00.088Z,98272.13
2023-01-28T01:59:31.486Z,98277.31
2023-01-28T02:02:03.168Z,98282.38
2023-01-28T02:04:35.561Z,98273.97
2023-01-28T02:07:03.261Z,98276.53
2023-01-28T02:09:36.113Z,98274.03
2023-01-28T02:12:13.905Z,98272.34
2023-01-28T02:14:51.731Z,98278.38
2023-01-28T02:17:19.099Z,98281.81
2023-01-28T02:20:01.117Z,98277.59
2023-01-28T02:23:02.543Z,98285.28
2023-01-28T02:26:16.060Z,98283.63
2023-01-28T02:29:15.462Z,98286.19
2023-01-28T02:32:20.107Z,98276.78
2023-01-28T02:35:15.939Z,98286.09
2023-01-28T02:38:21.315Z,98279.38
2023-01-28T02:41:09.714Z,98276.78
2023-01-28T02:43:43.348Z,98281.81
2023-01-28T02:46:43.429Z,98283.44
2023-01-28T02:49:16.710Z,98278.31
2023-01-28T02:52:03.858Z,98280.88
2023-01-28T02:54:53.169Z,98281.66
2023-01-28T02:57:47.111Z,98288.50
2023-01-28T03:00:31.525Z,98290.34
2023-01-28T03:03:33.198Z,98286.19
2023-01-28T03:06:06.953Z,98293.88
2023-01-28T03:09:14.369Z,98293.03
2023-01-28T03:12:06.739Z,98292.19
2023-01-28T03:14:54.454Z,98298.25
2023-01-28T03:18:16.828Z,98299.94
2023-01-28T03:21:31.236Z,98303.28
2023-01-28T03:24:27.189Z,98300.66
2023-01-28T03:27:29.505Z,98299.75
2023-01-28T03:30:21.907Z,98298.91
2023-01-28T03:33:08.709Z,98297.28
2023-01-28T03:35:55.499Z,98308.41
2023-01-28T03:38:23.003Z,98304.94
2023-01-28T03:41:03.881Z,98303.28
2023-01-28T03:43:31.672Z,98321.16
2023-01-28T03:45:58.506Z,98326.28
2023-01-28T03:48:27.913Z,98321.94
2023-01-28T03:51:01.483Z,98319.41
2023-01-28T03:53:28.467Z,98320.25
2023-01-28T03:55:56.657Z,98323.72
2023-01-28T03:58:27.024Z,98325.38
2023-01-28T04:00:54.443Z,98319.41
2023-01-28T04:03:22.316Z,98316.94
2023-01-28T04:06:04.987Z,98328.91
2023-01-28T04:08:31.798Z,98330.56
2023-01-28T04:10:58.774Z,98327.19
2023-01-28T04:13:25.487Z,98336.63
2023-01-28T04:15:52.199Z,98332.41
2023-01-28T04:18:19.755Z,98334.06
2023-01-28T04:20:49.732Z,98339.97
2023-01-28T04:23:16.431Z,98338.31
2023-01-28T04:25:43.135Z,98343.44
2023-01-28T04:28:09.858Z,98340.94
2023-01-28T04:30:36.669Z,98344.31
2023-01-28T04:33:03.434Z,98350.34
2023-01-28T04:35:30.147Z,98349.50
2023-01-28T04:37:56.882Z,98357.91
2023-01-28T04:40:23.600Z,98360.41
2023-01-28T04:42:54.479Z,98359.47
2023-01-28T04:45:22.453Z,98360.31
2023-01-28T04:47:49.339Z,98366.31
2023-01-28T04:50:16.852Z,98362.09
2023-01-28T04:52:43.612Z,98348.38
2023-01-28T04:55:11.174Z,98361.25
2023-01-28T04:57:37.932Z,98360.41
2023-01-28T05:00:05.641Z,98352.72
2023-01-28T05:02:32.444Z,98368.00
2023-01-28T05:05:01.387Z,98360.31
2023-01-28T05:07:28.167Z,98364.59
2023-01-28T05:09:55.007Z,98358.63
2023-01-28T05:12:21.799Z,98369.78
2023-01-28T05:14:48.504Z,98362.97
2023-01-28T05:17:15.231Z,98356.13
2023-01-28T05:19:42.234Z,98368.88
2023-01-28T05:22:09.295Z,98356.91
2023-01-28T05:24:36.014Z,98357.75
2023-01-28T05:27:02.879Z,98352.66
2023-01-28T05:29:29.578Z,98358.63
2023-01-28T05:31:56.281Z,98361.97
2023-01-28T05:34:22.988Z,98362.81
2023-01-28T05:36:49.707Z,98363.66
2023-01-28T05:39:16.675Z,98362.81
2023-01-28T05:41:43.414Z,98373.13
2023-01-28T05:44:10.781Z,98369.78
2023-01-28T05:46:37.576Z,98374.00
2023-01-28T05:49:06.540Z,98363.81
2023-01-28T05:51:33.533Z,98370.66
2023-01-28T05:54:00.239Z,98368.88
2023-01-28T05:56:26.972Z,98373.22
2023-01-28T05:58:53.696Z,98384.31
2023-01-28T06:01:20.503Z,98374.06
2023-01-28T06:03:47.257Z,98374.06
2023-01-28T06:06:13.960Z,98372.41
2023-01-28T06:08:41.349Z,98378.34
2023-01-28T06:11:08.075Z,98381.75
2023-01-28T06:13:34.989Z,98380.84
2023-01-28T06:16:02.839Z,98384.25
2023-01-28T06:18:29.925Z,98379.22
2023-01-28T06:20:56.620Z,98386.91
2023-01-28T06:23:23.334Z,98385.13
2023-01-28T06:25:55.184Z,98397.94
2023-01-28T06:28:22.418Z,98392.00
2023-01-28T06:30:50.492Z,98393.72
2023-01-28T06:33:18.695Z,98396.34
2023-01-28T06:35:45.502Z,98404.91
2023-01-28T06:38:13.471Z,98404.97
2023-01-28T06:40:40.646Z,98418.53
2023-01-28T06:43:07.600Z,98417.56
2023-01-28T06:45:34.405Z,98417.63
2023-01-28T06:48:01.134Z,98418.53
2023-01-28T06:50:27.904Z,98421.91
2023-01-28T06:52:54.632Z,98419.34
2023-01-28T06:55:21.354Z,98415.00
2023-01-28T06:57:48.093Z,98421.00
2023-01-28T07:00:16.769Z,98424.41
2023-01-28T07:02:43.794Z,98432.03
2023-01-28T07:05:11.015Z,98432.03
2023-01-28T07:07:40.096Z,98433.78
2023-01-28T07:10:09.703Z,98432.84
2023-01-28T07:12:36.410Z,98433.66
2023-01-28T07:15:03.417Z,98438.75
2023-01-28T07:17:30.262Z,98437.84
2023-01-28T07:19:57.014Z,98442.97
2023-01-28T07:22:23.755Z,98450.56
2023-01-28T07:24:50.466Z,98454.84
2023-01-28T07:27:17.250Z,98453.13
2023-01-28T07:29:44.006Z,98458.09
2023-01-28T07:32:10.806Z,98456.38
2023-01-28T07:34:39.795Z,98459.66
2023-01-28T07:37:10.094Z,98452.75
2023-01-28T07:39:36.859Z,98453.56
2023-01-28T07:42:03.883Z,98449.25
2023-01-28T07:44:30.637Z,98467.13
2023-01-28T07:46:57.413Z,98469.69
2023-01-28T07:49:24.124Z,98463.63
2023-01-28T07:51:50.939Z,98454.16
2023-01-28T07:54:17.983Z,98458.34
2023-01-28T07:56:44.717Z,98462.56
2023-01-28T07:59:11.469Z,98467.59
2023-01-28T08:01:38.793Z,98467.66
2023-01-28T08:04:05.805Z,98471.09
2023-01-28T08:06:37.860Z,98469.31
2023-01-28T08:09:08.339Z,98483.03
2023-01-28T08:11:38.927Z,98471.81
2023-01-28T08:14:06.181Z,98475.06
2023-01-28T08:16:33.015Z,98474.97
2023-01-28T08:18:59.788Z,98481.88
2023-01-28T08:21:26.558Z,98483.56
2023-01-28T08:23:54.538Z,98482.66
2023-01-28T08:26:21.259Z,98477.53
2023-01-28T08:28:49.548Z,98484.22
2023-01-28T08:31:17.403Z,98489.13
2023-01-28T08:33:44.239Z,98496.81
2023-01-28T08:36:10.953Z,98490.75
2023-01-28T08:38:37.744Z,98482.16
2023-01-28T08:41:04.797Z,98492.31
2023-01-28T08:43:31.522Z,98482.84
2023-01-28T08:45:58.384Z,98488.75
2023-01-28T08:48:25.227Z,98487.84
2023-01-28T08:50:51.971Z,98500.66
2023-01-28T08:53:20.105Z,98497.16
2023-01-28T08:55:47.982Z,98497.88
2023-01-28T08:58:17.522Z,98490.09
2023-01-28T09:00:46.166Z,98499.41
2023-01-28T09:03:13.125Z,98498.50
2023-01-28T09:05:40.004Z,98507.66
2023-01-28T09:08:13.963Z,98506.75
2023-01-28T09:10:42.010Z,98494.63
2023-01-28T09:13:15.497Z,98504.84
2023-01-28T09:15:42.650Z,98494.41
2023-01-28T09:18:09.944Z,98496.88
2023-01-28T09:20:38.157Z,98493.22
2023-01-28T09:23:05.337Z,98496.38
2023-01-28T09:25:33.050Z,98504.53
2023-01-28T09:27:59.741Z,98506.69
2023-01-28T09:30:27.582Z,98503.91
2023-01-28T09:32:56.121Z,98507.97
2023-01-28T09:35:22.872Z,98513.84
2023-01-28T09:37:51.849Z,98517.22
2023-01-28T09:40:34.299Z,98517.28
2023-01-28T09:44:05.383Z,98522.13
2023-01-28T09:46:37.106Z,98521.81
2023-01-28T09:49:25.134Z,98531.66
2023-01-28T09:51:55.170Z,98527.19
2023-01-28T09:54:46.290Z,98525.31
2023-01-28T09:57:26.308Z,98526.28
2023-01-28T09:59:53.372Z,98528.97
2023-01-28T10:03:32.632Z,98532.50
2023-01-28T10:06:47.167Z,98536.00
2023-01-28T10:09:54.152Z,98531.06
2023-01-28T10:12:51.148Z,98527.78
2023-01-28T10:15:42.344Z,98528.63
2023-01-28T10:18:17.682Z,98523.50
2023-01-28T10:20:57.839Z,98522.41
2023-01-28T10:23:47.114Z,98520.59
2023-01-28T10:26:30.035Z,98517.13
2023-01-28T10:29:04.904Z,98521.38
2023-01-28T10:31:42.933Z,98529.03
2023-01-28T10:34:11.325Z,98519.78
2023-01-28T10:36:38.281Z,98520.91
2023-01-28T10:39:06.624Z,98515.78
2023-01-28T10:41:34.205Z,98519.13
2023-01-28T10:44:01.138Z,98521.69
2023-01-28T10:46:34.678Z,98506.94
2023-01-28T10:49:26.586Z,98508.59
2023-01-28T10:51:53.555Z,98506.72
2023-01-28T10:54:27.003Z,98505.06
2023-01-28T10:57:03.437Z,98504.88
2023-01-28T10:59:34.491Z,98513.38
2023-01-28T11:02:19.771Z,98514.16
2023-01-28T11:04:46.533Z,98506.56
2023-01-28T11:07:21.476Z,98521.09
2023-01-28T11:09:51.616Z,98515.03
2023-01-28T11:12:27.874Z,98519.97
2023-01-28T11:15:03.670Z,98521.66
2023-01-28T11:17:37.303Z,98519.69
2023-01-28T11:20:43.687Z,98522.09
2023-01-28T11:23:26.120Z,98519.66
2023-01-28T11:26:17.305Z,98523.06
2023-01-28T11:28:44.791Z,98522.22
2023-01-28T11:31:18.552Z,98529.09
2023-01-28T11:33:57.208Z,98522.25
2023-01-28T11:36:32.462Z,98524.78
2023-01-28T11:39:16.236Z,98528.19
2023-01-28T11:41:43.029Z,98530.84
2023-01-28T11:44:27.511Z,98527.50
2023-01-28T11:47:07.763Z,98527.69
2023-01-28T11:50:17.556Z,98521.72
2023-01-28T11:53:33.518Z,98524.03
2023-01-28T11:56:44.661Z,98524.78
2023-01-28T11:59:34.347Z,98525.56
2023-01-28T12:02:15.459Z,98518.69
2023-01-28T12:05:02.994Z,98515.38
2023-01-28T12:08:00.564Z,98502.56
2023-01-28T12:11:02.786Z,98514.53
2023-01-28T12:14:16.226Z,98510.97
2023-01-28T12:16:57.309Z,98508.41
2023-01-28T12:19:55.089Z,98509.25
2023-01-28T12:22:52.763Z,98510.19
2023-01-28T12:25:35.857Z,98505.09
2023-01-28T12:28:30.619Z,98510.91
2023-01-28T12:31:41.747Z,98513.59
2023-01-28T12:34:48.573Z,98516.31
2023-01-28T12:37:37.286Z,98527.75
2023-01-28T12:40:34.690Z,98516.84
2023-01-28T12:43:16.351Z,98519.59
2023-01-28T12:45:55.499Z,98511.31
2023-01-28T12:48:36.521Z,98508.91
2023-01-28T12:51:23.562Z,98511.66
2023-01-28T12:53:58.814Z,98505.69
2023-01-28T12:56:42.365Z,98504.19
2023-01-28T12:59:22.302Z,98505.75
2023-01-28T13:02:15.014Z,98500.75
2023-01-28T13:05:11.725Z,98498.16
2023-01-28T13:08:10.806Z,98494.66
2023-01-28T13:10:45.193Z,98498.88
2023-01-28T13:13:42.010Z,98505.69
2023-01-28T13:16:12.020Z,98503.03
2023-01-28T13:18:42.373Z,98508.97
2023-01-28T13:21:23.935Z,98508.06
2023-01-28T13:24:06.310Z,98501.13
2023-01-28T13:26:57.598Z,98507.06
2023-01-28T13:29:24.277Z,98500.19
2023-01-28T13:31:55.733Z,98500.94
2023-01-28T13:34:40.437Z,98511.22
2023-01-28T13:37:32.243Z,98511.16
2023-01-28T13:40:27.792Z,98513.53
2023-01-28T13:43:24.966Z,98521.25
2023-01-28T13:46:01.815Z,98524.78
2023-01-28T13:48:52.008Z,98519.91
2023-01-28T13:51:38.578Z,98520.81
2023-01-28T13:54:18.808Z,98519.06
2023-01-28T13:57:00.957Z,98516.44
2023-01-28T14:00:06.441Z,98528.50
2023-01-28T14:03:10.065Z,98529.41
2023-01-28T14:06:23.568Z,98526.84
2023-01-28T14:09:31.578Z,98537.91
2023-01-28T14:12:41.619Z,98529.16
2023-01-28T14:15:55.925Z,98539.00
2023-01-28T14:18:35.011Z,98533.59
2023-01-28T14:21:11.264Z,98532.66
2023-01-28T14:23:45.832Z,98540.38
2023-01-28T14:27:12.523Z,98544.66
2023-01-28T14:30:00.306Z,98543.06
2023-01-28T14:32:31.392Z,98552.63
2023-01-28T14:35:07.227Z,98563.84
2023-01-28T14:37:34.514Z,98553.66
2023-01-28T14:40:06.319Z,98559.81
2023-01-28T14:42:39.446Z,98564.16
2023-01-28T14:45:33.715Z,98566.88
2023-01-28T14:48:27.357Z,98564.50
2023-01-28T14:51:36.888Z,98563.28
2023-01-28T14:54:36.694Z,98566.94
2023-01-28T14:57:41.502Z,98560.25
2023-01-28T15:00:22.707Z,98563.88
2023-01-28T15:02:49.704Z,98567.25
2023-01-28T15:05:27.018Z,98568.31
2023-01-28T15:07:55.670Z,98574.50
2023-01-28T15:10:31.116Z,98567.75
2023-01-28T15:13:09.637Z,98584.19
2023-01-28T15:15:43.430Z,98590.38
2023-01-28T15:18:23.571Z,98591.38
2023-01-28T15:20:54.995Z,98596.63
2023-01-28T15:23:48.261Z,98599.38
2023-01-28T15:26:18.970Z,98594.34
2023-01-28T15:28:47.547Z,98599.53
2023-01-28T15:31:25.303Z,98609.06
2023-01-28T15:34:17.801Z,98620.28
2023-01-28T15:36:47.560Z,98610.13
2023-01-28T15:39:22.837Z,98611.03
2023-01-28T15:42:04.655Z,98611.13
2023-01-28T15:44:44.080Z,98613.00
2023-01-28T15:47:23.963Z,98617.47
2023-01-28T15:49:55.509Z,98615.81
2023-01-28T15:52:33.802Z,98614.91
2023-01-28T15:55:01.950Z,98623.59
2023-01-28T15:57:34.703Z,98625.44
2023-01-28T16:00:07.290Z,98612.66
2023-01-28T16:02:42.404Z,98629.72
2023-01-28T16:05:34.611Z,98635.75
2023-01-28T16:08:36.155Z,98635.81
2023-01-28T16:11:03.396Z,98634.28
2023-01-28T16:13:34.046Z,98644.63
2023-01-28T16:16:04.408Z,98648.09
2023-01-28T16:18:53.646Z,98652.44
2023-01-28T16:21:28.872Z,98640.56
2023-01-28T16:24:04.004Z,98646.56
2023-01-28T16:26:35.083Z,98643.16
2023-01-28T16:29:16.811Z,98642.38
2023-01-28T16:31:43.774Z,98639.91
2023-01-28T16:34:12.038Z,98653.63
2023-01-28T16:36:38.920Z,98652.81
2023-01-28T16:39:06.238Z,98658.75
2023-01-28T16:41:40.734Z,98654.56
2023-01-28T16:44:12.960Z,98651.22
2023-01-28T16:46:40.102Z,98656.38
2023-01-28T16:49:06.923Z,98645.41
2023-01-28T16:51:36.014Z,98648.00
2023-01-28T16:54:04.496Z,98657.44
2023-01-28T16:56:47.251Z,98657.53
2023-01-28T16:59:16.369Z,98654.16
2023-01-28T17:01:44.507Z,98653.25
2023-01-28T17:04:12.780Z,98661.72
2023-01-28T17:06:43.674Z,98658.31
2023-01-28T17:09:13.378Z,98646.34
2023-01-28T17:11:40.995Z,98653.25
2023-01-28T17:14:09.350Z,98645.63
2023-01-28T17:16:36.313Z,98655.19
2023-01-28T17:19:03.342Z,98651.91
2023-01-28T17:21:30.085Z,98661.34
2023-01-28T17:23:58.324Z,98665.69
2023-01-28T17:26:26.382Z,98656.28
2023-01-28T17:28:53.908Z,98662.25
2023-01-28T17:31:21.672Z,98655.47
2023-01-28T17:33:58.444Z,98652.09
2023-01-28T17:36:26.801Z,98654.59
2023-01-28T17:38:54.057Z,98649.53
2023-01-28T17:41:21.326Z,98661.53
2023-01-28T17:44:16.797Z,98673.47
2023-01-28T17:46:43.500Z,98682.75
2023-01-28T17:49:10.366Z,98678.47
2023-01-28T17:51:37.155Z,98687.88
2023-01-28T17:54:13.151Z,98684.47
2023-01-28T17:56:39.949Z,98687.03
2023-01-28T17:59:06.996Z,98688.88
2023-01-28T18:01:37.045Z,98683.03
2023-01-28T18:04:04.559Z,98683.91
2023-01-28T18:06:35.468Z,98685.53
2023-01-28T18:09:03.609Z,98676.09
2023-01-28T18:11:32.039Z,98663.28
2023-01-28T18:13:58.858Z,98681.31
2023-01-28T18:16:25.573Z,98673.75
2023-01-28T18:18:52.455Z,98681.50
2023-01-28T18:21:51.234Z,98679.81
2023-01-28T18:24:20.362Z,98683.16
2023-01-28T18:26:47.430Z,98696.81
2023-01-28T18:29:20.396Z,98689.09
2023-01-28T18:31:48.848Z,98693.25
2023-01-28T18:34:17.182Z,98696.69
2023-01-28T18:36:43.914Z,98703.47
2023-01-28T18:39:13.357Z,98710.28
2023-01-28T18:41:40.469Z,98698.38
2023-01-28T18:44:10.137Z,98691.59
2023-01-28T18:46:37.014Z,98703.66
2023-01-28T18:49:04.443Z,98709.69
2023-01-28T18:51:31.839Z,98715.69
2023-01-28T18:54:02.205Z,98714.00
2023-01-28T18:56:30.744Z,98714.06
2023-01-28T18:59:00.441Z,98707.25
2023-01-28T19:01:28.635Z,98704.72
2023-01-28T19:03:57.197Z,98715.03
2023-01-28T19:06:25.974Z,98714.31
2023-01-28T19:08:59.208Z,98717.75
2023-01-28T19:11:29.321Z,98718.59
2023-01-28T19:13:56.999Z,98733.97
2023-01-28T19:16:24.846Z,98740.88
2023-01-28T19:19:00.762Z,98733.22
2023-01-28T19:21:30.512Z,98731.50
2023-01-28T19:24:01.407Z,98734.94
2023-01-28T19:26:30.856Z,98736.72
2023-01-28T19:28:58.287Z,98736.78
2023-01-28T19:31:26.403Z,98748.81
2023-01-28T19:33:59.355Z,98746.25
2023-01-28T19:36:29.760Z,98742.00
2023-01-28T19:39:08.618Z,98742.00
2023-01-28T19:41:36.375Z,98742.84
2023-01-28T19:44:04.875Z,98738.59
2023-01-28T19:46:32.913Z,98735.25
2023-01-28T19:48:59.771Z,98737.09
2023-01-28T19:51:26.504Z,98737.19
2023-01-28T19:53:54.913Z,98747.53
2023-01-28T19:56:24.901Z,98745.94
2023-01-28T19:58:54.505Z,98746.03
2023-01-28T20:01:29.974Z,98749.41
2023-01-28T20:04:00.094Z,98744.25
2023-01-28T20:06:29.863Z,98745.09
2023-01-28T20:09:07.744Z,98752.78
2023-01-28T20:11:35.459Z,98747.63
2023-01-28T20:14:02.469Z,98756.09
2023-01-28T20:16:32.420Z,98759.44
2023-01-28T20:19:06.753Z,98772.19
2023-01-28T20:21:35.267Z,98774.69
2023-01-28T20:24:03.692Z,98789.19
2023-01-28T20:26:34.897Z,98796.84
2023-01-28T20:29:08.916Z,98798.63
2023-01-28T20:31:37.436Z,98815.72
2023-01-28T20:34:04.597Z,98808.91
2023-01-28T20:36:31.531Z,98814.97
2023-01-28T20:38:58.504Z,98821.06
2023-01-28T20:41:26.834Z,98827.16
2023-01-28T20:43:54.478Z,98832.38
2023-01-28T20:46:30.658Z,98835.06
2023-01-28T20:49:00.435Z,98834.34
2023-01-28T20:51:30.931Z,98835.28
2023-01-28T20:54:00.452Z,98829.44
2023-01-28T20:56:30.046Z,98834.66
2023-01-28T20:59:04.685Z,98821.97
2023-01-28T21:01:35.312Z,98821.22
2023-01-28T21:04:05.750Z,98817.91
2023-01-28T21:06:33.011Z,98808.63
2023-01-28T21:08:59.866Z,98804.47
2023-01-28T21:11:27.102Z,98801.91
2023-01-28T21:13:54.077Z,98809.53
2023-01-28T21:16:21.350Z,98811.22
2023-01-28T21:18:48.600Z,98801.78
2023-01-28T21:21:25.163Z,98807.72
2023-01-28T21:23:57.608Z,98799.97
2023-01-28T21:26:24.913Z,98811.13
2023-01-28T21:28:51.651Z,98806.00
2023-01-28T21:31:22.363Z,98789.00
2023-01-28T21:33:55.020Z,98806.91
2023-01-28T21:36:23.337Z,98816.34
2023-01-28T21:38:59.399Z,98819.78
2023-01-28T21:41:27.680Z,98807.84
2023-01-28T21:43:57.068Z,98801.09
2023-01-28T21:46:28.353Z,98797.69
2023-01-28T21:49:01.469Z,98813.00
2023-01-28T21:51:35.621Z,98814.69
2023-01-28T21:54:09.648Z,98819.81
2023-01-28T21:56:36.391Z,98836.88
2023-01-28T21:59:22.216Z,98836.88
2023-01-28T22:01:49.183Z,98840.28
2023-01-28T22:04:16.285Z,98823.16
2023-01-28T22:06:43.333Z,98832.63
2023-01-28T22:09:13.369Z,98835.22
2023-01-28T22:11:42.296Z,98835.25
2023-01-28T22:14:10.085Z,98830.09
2023-01-28T22:16:37.001Z,98823.34
2023-01-28T22:19:04.386Z,98820.84
2023-01-28T22:21:31.212Z,98817.41
2023-01-28T22:23:58.147Z,98825.16
2023-01-28T22:26:24.933Z,98810.75
2023-01-28T22:28:51.710Z,98812.50
2023-01-28T22:31:18.565Z,98825.28
2023-01-28T22:33:46.162Z,98809.09
2023-01-28T22:36:15.831Z,98817.59
2023-01-28T22:38:45.118Z,98809.09
2023-01-28T22:41:20.034Z,98824.47
2023-01-28T22:43:47.100Z,98827.88
2023-01-28T22:46:15.230Z,98816.03
2023-01-28T22:48:42.185Z,98822.88
2023-01-28T22:51:18.304Z,98815.19
2023-01-28T22:53:47.187Z,98811.84
2023-01-28T22:56:16.884Z,98824.66
2023-01-28T22:58:43.788Z,98825.56
2023-01-28T23:01:15.214Z,98824.75
2023-01-28T23:03:48.096Z,98822.22
2023-01-28T23:06:18.735Z,98827.34
2023-01-28T23:08:46.143Z,98823.91
2023-01-28T23:11:25.146Z,98812.88
2023-01-28T23:14:13.902Z,98806.97
2023-01-28T23:16:59.401Z,98809.53
2023-01-28T23:19:44.907Z,98819.81
2023-01-28T23:22:40.841Z,98812.19
2023-01-28T23:25:08.664Z,98811.41
2023-01-28T23:27:35.731Z,98811.50
2023-01-28T23:30:03.764Z,98806.44
2023-01-28T23:32:30.850Z,98805.53
2023-01-28T23:34:57.639Z,98802.06
2023-01-28T23:37:24.422Z,98808.88
2023-01-28T23:39:51.185Z,98804.59
2023-01-28T23:42:21.230Z,98802.00
2023-01-28T23:44:48.357Z,98810.53
2023-01-28T23:47:15.708Z,98805.44
2023-01-28T23:49:42.449Z,98812.28
2023-01-28T23:52:09.774Z,98818.19
2023-01-28T23:54:36.677Z,98809.72
2023-01-28T23:57:04.519Z,98802.88
2023-01-28T23:59:31.257Z,98812.31
